KBJJ

Details ICAO KBJJ
Name WAYNE CO
Region United States
Timezone America/New_York (UTC-5.0)
Plans Departing 2
Arriving 2
Stats Elevation 1,136 ft / 346 m (AMSL)
Location 40.874843° -81.888262°
Runways 1
Magnetic Variation 8.087° W
Sunrise 2017-12-14 12:45:50 UTC / 2017-12-14 07:45:50 Local
Sunset 2017-12-14 22:01:38 UTC / 2017-12-14 17:01:38 Local
Advertisement - Login to hide

Runways

ID Width Length Bearing (true) Bearing (mag) Surface Threshold Offset Overrun Length
10 98 ft / 30 m 5,179 ft / 1,579 m 90.00° 98.09° Asphalt 0 ft / 0 m 0 ft / 0 m
28 98 ft / 30 m 5,179 ft / 1,579 m 270.01° 278.10° Asphalt 217 ft / 66 m 0 ft / 0 m

Map

Weather


0- 5 10 15 20 25 30 35+ Temperature / ° C

Clouds and Precipitation
Forecast for 2017-12-15 00:00 UTC. Updated 7 minutes ago

Ground ~20,000 ft ~40,000 ft Winds

METAR

KBJJ 142256Z AUTO 29005KT 9SM CLR M12/M14 A3004 RMK AO2 SLP193 T11221139

TAF

Not found

Frequencies

Recorded 118.07 MHz ASOS
Clearance 121.75 MHz CLNC DEL
Unicom 122.80 MHz CTAF/UNICOM
Approach 118.60 MHz AKRON CANTON APP/DEP
Warning: Do not use this data for real-world aviation or navigation. No guarantee of current accuracy is given.